sensor_id;sensor_type;location;lat;lon;timestamp;pressure;altitude;pressure_sealevel;temperature;humidity
55590;BME280;41452;42.780;23.116;2023-07-31T00:01:27;94112.84;;;20.30;100.00
55590;BME280;41452;42.780;23.116;2023-07-31T00:03:52;94112.97;;;20.25;100.00
55590;BME280;41452;42.780;23.116;2023-07-31T00:06:17;94103.69;;;20.23;100.00
55590;BME280;41452;42.780;23.116;2023-07-31T00:08:43;94117.50;;;20.25;100.00
55590;BME280;41452;42.780;23.116;2023-07-31T00:11:08;94084.13;;;20.13;100.00
55590;BME280;41452;42.780;23.116;2023-07-31T00:13:33;94092.63;;;20.29;100.00
55590;BME280;41452;42.780;23.116;2023-07-31T00:15:59;94100.72;;;20.38;100.00
55590;BME280;41452;42.780;23.116;2023-07-31T00:18:24;94067.94;;;20.24;100.00
55590;BME280;41452;42.780;23.116;2023-07-31T00:20:50;94070.50;;;20.29;100.00
55590;BME280;41452;42.780;23.116;2023-07-31T00:23:15;94074.44;;;20.31;100.00
55590;BME280;41452;42.780;23.116;2023-07-31T00:25:41;94060.63;;;20.29;100.00
55590;BME280;41452;42.780;23.116;2023-07-31T00:28:06;94053.50;;;20.25;100.00
55590;BME280;41452;42.780;23.116;2023-07-31T00:30:32;94057.03;;;20.34;100.00
55590;BME280;41452;42.780;23.116;2023-07-31T00:32:57;94055.50;;;20.33;100.00
55590;BME280;41452;42.780;23.116;2023-07-31T00:35:22;94049.56;;;20.36;100.00
55590;BME280;41452;42.780;23.116;2023-07-31T00:37:48;94068.00;;;20.46;100.00
55590;BME280;41452;42.780;23.116;2023-07-31T00:40:13;94041.97;;;20.29;100.00
55590;BME280;41452;42.780;23.116;2023-07-31T00:42:39;94051.94;;;20.38;100.00
55590;BME280;41452;42.780;23.116;2023-07-31T00:45:05;94045.78;;;20.37;100.00
55590;BME280;41452;42.780;23.116;2023-07-31T00:47:30;94038.13;;;20.22;100.00
55590;BME280;41452;42.780;23.116;2023-07-31T00:49:56;94056.84;;;20.30;100.00
55590;BME280;41452;42.780;23.116;2023-07-31T00:52:21;94053.31;;;20.35;100.00
55590;BME280;41452;42.780;23.116;2023-07-31T00:54:48;94058.84;;;20.39;100.00
55590;BME280;41452;42.780;23.116;2023-07-31T00:57:14;94047.19;;;20.21;100.00
55590;BME280;41452;42.780;23.116;2023-07-31T00:59:39;94057.28;;;20.24;100.00
55590;BME280;41452;42.780;23.116;2023-07-31T01:02:05;94041.69;;;20.17;100.00
55590;BME280;41452;42.780;23.116;2023-07-31T01:04:31;94034.16;;;20.19;100.00
55590;BME280;41452;42.780;23.116;2023-07-31T01:07:04;94048.06;;;20.30;100.00
55590;BME280;41452;42.780;23.116;2023-07-31T01:12:31;94049.19;;;20.29;100.00
55590;BME280;41452;42.780;23.116;2023-07-31T01:15:07;94031.78;;;20.18;100.00
55590;BME280;41452;42.780;23.116;2023-07-31T01:17:37;94029.22;;;20.12;100.00
55590;BME280;41452;42.780;23.116;2023-07-31T01:20:05;94022.91;;;20.08;100.00
55590;BME280;41452;42.780;23.116;2023-07-31T01:28:06;94009.09;;;19.79;100.00
55590;BME280;41452;42.780;23.116;2023-07-31T01:30:34;94008.38;;;19.73;100.00
55590;BME280;41452;42.780;23.116;2023-07-31T01:33:03;94022.13;;;19.80;100.00
55590;BME280;41452;42.780;23.116;2023-07-31T01:35:36;94019.75;;;19.79;100.00
55590;BME280;41452;42.780;23.116;2023-07-31T01:38:01;94006.91;;;19.67;100.00
55590;BME280;41452;42.780;23.116;2023-07-31T01:40:27;94028.84;;;19.78;100.00
55590;BME280;41452;42.780;23.116;2023-07-31T01:42:52;94009.59;;;19.67;100.00
55590;BME280;41452;42.780;23.116;2023-07-31T01:45:18;94029.44;;;19.74;100.00
55590;BME280;41452;42.780;23.116;2023-07-31T01:47:43;94037.50;;;19.69;100.00
55590;BME280;41452;42.780;23.116;2023-07-31T01:50:09;94009.56;;;19.53;100.00
55590;BME280;41452;42.780;23.116;2023-07-31T01:52:34;94027.31;;;19.71;100.00
55590;BME280;41452;42.780;23.116;2023-07-31T01:55:00;94027.56;;;19.75;100.00
55590;BME280;41452;42.780;23.116;2023-07-31T01:57:25;94039.91;;;19.85;100.00
55590;BME280;41452;42.780;23.116;2023-07-31T01:59:51;94030.41;;;19.79;100.00
55590;BME280;41452;42.780;23.116;2023-07-31T02:02:19;94016.19;;;19.69;100.00
55590;BME280;41452;42.780;23.116;2023-07-31T02:04:44;94003.34;;;19.57;100.00
55590;BME280;41452;42.780;23.116;2023-07-31T02:07:10;94019.34;;;19.71;100.00
55590;BME280;41452;42.780;23.116;2023-07-31T02:09:35;94021.03;;;19.67;100.00
55590;BME280;41452;42.780;23.116;2023-07-31T02:12:01;93992.78;;;19.38;100.00
55590;BME280;41452;42.780;23.116;2023-07-31T02:14:27;94014.50;;;19.60;100.00
55590;BME280;41452;42.780;23.116;2023-07-31T02:16:52;94014.59;;;19.54;100.00
55590;BME280;41452;42.780;23.116;2023-07-31T02:19:17;94026.31;;;19.53;100.00
55590;BME280;41452;42.780;23.116;2023-07-31T02:21:43;94031.38;;;19.55;100.00
55590;BME280;41452;42.780;23.116;2023-07-31T02:24:08;93991.56;;;19.31;100.00
55590;BME280;41452;42.780;23.116;2023-07-31T02:26:34;93999.75;;;19.34;100.00
55590;BME280;41452;42.780;23.116;2023-07-31T02:28:59;94016.53;;;19.49;100.00
55590;BME280;41452;42.780;23.116;2023-07-31T02:31:24;94020.50;;;19.51;100.00
55590;BME280;41452;42.780;23.116;2023-07-31T02:33:50;94026.25;;;19.59;100.00
55590;BME280;41452;42.780;23.116;2023-07-31T02:36:15;94047.81;;;19.76;100.00
55590;BME280;41452;42.780;23.116;2023-07-31T02:38:41;94050.09;;;19.83;100.00
55590;BME280;41452;42.780;23.116;2023-07-31T02:41:06;94030.81;;;19.72;100.00
55590;BME280;41452;42.780;23.116;2023-07-31T02:43:31;94040.41;;;19.87;100.00
55590;BME280;41452;42.780;23.116;2023-07-31T02:45:57;94014.00;;;19.71;100.00
55590;BME280;41452;42.780;23.116;2023-07-31T02:48:22;94001.19;;;19.60;100.00
55590;BME280;41452;42.780;23.116;2023-07-31T02:50:48;94047.72;;;19.95;100.00
55590;BME280;41452;42.780;23.116;2023-07-31T02:53:13;94045.53;;;19.97;100.00
55590;BME280;41452;42.780;23.116;2023-07-31T02:55:39;94016.19;;;19.69;100.00
55590;BME280;41452;42.780;23.116;2023-07-31T02:58:04;94032.00;;;19.80;100.00
55590;BME280;41452;42.780;23.116;2023-07-31T03:00:30;94050.97;;;19.92;100.00
55590;BME280;41452;42.780;23.116;2023-07-31T03:02:55;94056.69;;;19.85;100.00
55590;BME280;41452;42.780;23.116;2023-07-31T03:05:21;94050.16;;;19.78;100.00
55590;BME280;41452;42.780;23.116;2023-07-31T03:07:46;94038.31;;;19.84;100.00
55590;BME280;41452;42.780;23.116;2023-07-31T03:10:11;94039.09;;;19.70;100.00
55590;BME280;41452;42.780;23.116;2023-07-31T03:12:37;94040.34;;;19.73;100.00
55590;BME280;41452;42.780;23.116;2023-07-31T03:15:03;94051.34;;;19.85;100.00
55590;BME280;41452;42.780;23.116;2023-07-31T03:17:28;94020.63;;;19.60;100.00
55590;BME280;41452;42.780;23.116;2023-07-31T03:19:53;94050.09;;;19.83;100.00
55590;BME280;41452;42.780;23.116;2023-07-31T03:22:19;94064.41;;;20.01;100.00
55590;BME280;41452;42.780;23.116;2023-07-31T03:24:44;94051.94;;;19.96;100.00
55590;BME280;41452;42.780;23.116;2023-07-31T03:27:09;94067.25;;;20.04;100.00
55590;BME280;41452;42.780;23.116;2023-07-31T03:29:35;94040.09;;;19.88;100.00
55590;BME280;41452;42.780;23.116;2023-07-31T03:32:00;94050.47;;;19.90;100.00
55590;BME280;41452;42.780;23.116;2023-07-31T03:34:26;94060.13;;;19.86;100.00
55590;BME280;41452;42.780;23.116;2023-07-31T03:36:51;94069.91;;;19.90;100.00
55590;BME280;41452;42.780;23.116;2023-07-31T03:39:17;94056.28;;;19.78;100.00
55590;BME280;41452;42.780;23.116;2023-07-31T03:41:42;94068.53;;;19.79;100.00
55590;BME280;41452;42.780;23.116;2023-07-31T03:44:07;94068.00;;;19.77;100.00
55590;BME280;41452;42.780;23.116;2023-07-31T03:46:33;94079.00;;;19.75;100.00
55590;BME280;41452;42.780;23.116;2023-07-31T03:48:59;94017.16;;;19.46;100.00
55590;BME280;41452;42.780;23.116;2023-07-31T03:51:24;94077.31;;;19.80;100.00
55590;BME280;41452;42.780;23.116;2023-07-31T03:53:49;94051.69;;;19.51;100.00
55590;BME280;41452;42.780;23.116;2023-07-31T03:56:15;94071.03;;;19.56;100.00
55590;BME280;41452;42.780;23.116;2023-07-31T03:58:40;94087.41;;;19.64;100.00
55590;BME280;41452;42.780;23.116;2023-07-31T04:01:06;94061.16;;;19.57;100.00
55590;BME280;41452;42.780;23.116;2023-07-31T04:03:31;94072.00;;;19.61;100.00
55590;BME280;41452;42.780;23.116;2023-07-31T04:05:56;94070.25;;;19.56;100.00
55590;BME280;41452;42.780;23.116;2023-07-31T04:08:22;94073.09;;;19.60;100.00
55590;BME280;41452;42.780;23.116;2023-07-31T04:10:48;94085.38;;;19.74;100.00
55590;BME280;41452;42.780;23.116;2023-07-31T04:13:14;94083.84;;;19.68;100.00
55590;BME280;41452;42.780;23.116;2023-07-31T04:15:39;94077.25;;;19.66;100.00
55590;BME280;41452;42.780;23.116;2023-07-31T04:18:05;94096.03;;;19.74;100.00
55590;BME280;41452;42.780;23.116;2023-07-31T04:20:30;94053.81;;;19.49;100.00
55590;BME280;41452;42.780;23.116;2023-07-31T04:22:56;94076.84;;;19.59;100.00
55590;BME280;41452;42.780;23.116;2023-07-31T04:25:21;94095.13;;;19.65;100.00
55590;BME280;41452;42.780;23.116;2023-07-31T04:27:47;94088.06;;;19.55;100.00
55590;BME280;41452;42.780;23.116;2023-07-31T04:30:12;94088.78;;;19.61;100.00
55590;BME280;41452;42.780;23.116;2023-07-31T04:32:38;94095.13;;;19.65;100.00
55590;BME280;41452;42.780;23.116;2023-07-31T04:35:03;94088.28;;;19.59;100.00
55590;BME280;41452;42.780;23.116;2023-07-31T04:37:29;94086.63;;;19.63;100.00
55590;BME280;41452;42.780;23.116;2023-07-31T04:39:54;94086.31;;;19.51;100.00
55590;BME280;41452;42.780;23.116;2023-07-31T04:42:19;94086.31;;;19.51;100.00
55590;BME280;41452;42.780;23.116;2023-07-31T04:44:45;94084.50;;;19.46;100.00
55590;BME280;41452;42.780;23.116;2023-07-31T04:47:10;94082.41;;;19.29;100.00
55590;BME280;41452;42.780;23.116;2023-07-31T04:49:36;94084.78;;;19.45;100.00
55590;BME280;41452;42.780;23.116;2023-07-31T04:52:02;94074.50;;;19.38;100.00
55590;BME280;41452;42.780;23.116;2023-07-31T04:54:27;94070.41;;;19.46;100.00
55590;BME280;41452;42.780;23.116;2023-07-31T04:56:52;94081.47;;;19.53;100.00
55590;BME280;41452;42.780;23.116;2023-07-31T04:59:18;94094.69;;;19.58;100.00
55590;BME280;41452;42.780;23.116;2023-07-31T05:01:43;94086.91;;;19.62;100.00
55590;BME280;41452;42.780;23.116;2023-07-31T05:04:12;94094.97;;;19.75;100.00
55590;BME280;41452;42.780;23.116;2023-07-31T05:06:38;94086.03;;;19.66;100.00
55590;BME280;41452;42.780;23.116;2023-07-31T05:09:03;94090.47;;;19.71;100.00
55590;BME280;41452;42.780;23.116;2023-07-31T05:11:29;94075.56;;;19.56;100.00
55590;BME280;41452;42.780;23.116;2023-07-31T05:13:54;94072.78;;;19.61;100.00
55590;BME280;41452;42.780;23.116;2023-07-31T05:16:19;94075.56;;;19.70;100.00
55590;BME280;41452;42.780;23.116;2023-07-31T05:18:45;94054.25;;;19.56;100.00
55590;BME280;41452;42.780;23.116;2023-07-31T05:21:10;94081.94;;;19.74;100.00
55590;BME280;41452;42.780;23.116;2023-07-31T05:23:36;94075.44;;;19.61;100.00
55590;BME280;41452;42.780;23.116;2023-07-31T05:26:07;94094.97;;;19.75;100.00
55590;BME280;41452;42.780;23.116;2023-07-31T05:28:35;94092.59;;;19.74;100.00
55590;BME280;41452;42.780;23.116;2023-07-31T05:31:04;94082.91;;;19.78;100.00
55590;BME280;41452;42.780;23.116;2023-07-31T05:33:30;94088.66;;;19.85;100.00
55590;BME280;41452;42.780;23.116;2023-07-31T05:35:56;94078.78;;;19.86;100.00
55590;BME280;41452;42.780;23.116;2023-07-31T05:38:21;94074.25;;;19.86;100.00
55590;BME280;41452;42.780;23.116;2023-07-31T05:40:47;94076.81;;;19.91;100.00
55590;BME280;41452;42.780;23.116;2023-07-31T05:43:13;94079.56;;;20.00;100.00
55590;BME280;41452;42.780;23.116;2023-07-31T05:45:38;94085.91;;;20.04;100.00
55590;BME280;41452;42.780;23.116;2023-07-31T05:48:05;94086.50;;;20.01;100.00
55590;BME280;41452;42.780;23.116;2023-07-31T05:50:30;94084.19;;;19.81;100.00
55590;BME280;41452;42.780;23.116;2023-07-31T05:52:56;94069.66;;;19.73;100.00
55590;BME280;41452;42.780;23.116;2023-07-31T05:55:21;94096.75;;;19.94;100.00
55590;BME280;41452;42.780;23.116;2023-07-31T05:57:47;94070.00;;;19.85;100.00
55590;BME280;41452;42.780;23.116;2023-07-31T06:00:13;94100.91;;;20.00;100.00
55590;BME280;41452;42.780;23.116;2023-07-31T06:02:38;94083.91;;;19.82;100.00
55590;BME280;41452;42.780;23.116;2023-07-31T06:05:05;94101.31;;;19.93;100.00
55590;BME280;41452;42.780;23.116;2023-07-31T06:07:34;94110.97;;;19.89;100.00
55590;BME280;41452;42.780;23.116;2023-07-31T06:09:59;94077.03;;;19.62;100.00
55590;BME280;41452;42.780;23.116;2023-07-31T06:12:30;94112.44;;;19.82;100.00
55590;BME280;41452;42.780;23.116;2023-07-31T06:14:56;94113.91;;;19.88;100.00
55590;BME280;41452;42.780;23.116;2023-07-31T06:17:21;94126.53;;;19.82;99.70
55590;BME280;41452;42.780;23.116;2023-07-31T06:19:46;94124.69;;;19.83;100.00
55590;BME280;41452;42.780;23.116;2023-07-31T06:22:12;94120.13;;;19.83;100.00
55590;BME280;41452;42.780;23.116;2023-07-31T06:24:37;94121.91;;;19.88;100.00
55590;BME280;41452;42.780;23.116;2023-07-31T06:27:03;94105.13;;;19.87;100.00
55590;BME280;41452;42.780;23.116;2023-07-31T06:29:29;94114.41;;;20.04;100.00
55590;BME280;41452;42.780;23.116;2023-07-31T06:31:55;94097.75;;;19.98;99.49
55590;BME280;41452;42.780;23.116;2023-07-31T06:34:20;94128.16;;;20.25;98.37
55590;BME280;41452;42.780;23.116;2023-07-31T06:36:46;94099.63;;;20.11;97.32
55590;BME280;41452;42.780;23.116;2023-07-31T06:39:11;94123.84;;;20.29;96.28
55590;BME280;41452;42.780;23.116;2023-07-31T06:41:38;94125.88;;;20.32;95.25
55590;BME280;41452;42.780;23.116;2023-07-31T06:44:03;94123.44;;;20.22;94.83
55590;BME280;41452;42.780;23.116;2023-07-31T06:46:28;94116.13;;;20.27;95.53
55590;BME280;41452;42.780;23.116;2023-07-31T06:48:54;94107.44;;;20.22;96.01
55590;BME280;41452;42.780;23.116;2023-07-31T06:51:20;94096.66;;;20.27;94.30
55590;BME280;41452;42.780;23.116;2023-07-31T06:53:45;94100.13;;;20.27;92.97
55590;BME280;41452;42.780;23.116;2023-07-31T06:56:11;94109.09;;;20.45;92.22
55590;BME280;41452;42.780;23.116;2023-07-31T06:58:36;94093.00;;;20.37;92.28
55590;BME280;41452;42.780;23.116;2023-07-31T07:01:01;94113.84;;;20.48;90.96
55590;BME280;41452;42.780;23.116;2023-07-31T07:03:27;94099.50;;;20.44;91.59
55590;BME280;41452;42.780;23.116;2023-07-31T07:05:52;94097.44;;;20.55;90.68
55590;BME280;41452;42.780;23.116;2023-07-31T07:08:18;94103.47;;;20.61;91.76
55590;BME280;41452;42.780;23.116;2023-07-31T07:10:43;94104.97;;;20.67;90.70
55590;BME280;41452;42.780;23.116;2023-07-31T07:13:08;94086.66;;;20.74;90.22
55590;BME280;41452;42.780;23.116;2023-07-31T07:15:34;94074.84;;;20.66;90.41
55590;BME280;41452;42.780;23.116;2023-07-31T07:18:00;94109.97;;;20.82;89.69
55590;BME280;41452;42.780;23.116;2023-07-31T07:20:25;94102.84;;;20.78;90.25
55590;BME280;41452;42.780;23.116;2023-07-31T07:22:50;94118.38;;;20.89;87.78
55590;BME280;41452;42.780;23.116;2023-07-31T07:25:16;94106.09;;;20.88;89.56
55590;BME280;41452;42.780;23.116;2023-07-31T07:27:41;94113.69;;;20.95;89.25
55590;BME280;41452;42.780;23.116;2023-07-31T07:30:07;94115.97;;;21.02;90.32
55590;BME280;41452;42.780;23.116;2023-07-31T07:32:33;94111.84;;;21.18;89.73
55590;BME280;41452;42.780;23.116;2023-07-31T07:34:58;94110.63;;;21.24;88.92
55590;BME280;41452;42.780;23.116;2023-07-31T07:37:23;94110.03;;;21.27;88.00
55590;BME280;41452;42.780;23.116;2023-07-31T07:39:49;94106.69;;;21.22;86.76
55590;BME280;41452;42.780;23.116;2023-07-31T07:42:14;94115.72;;;21.35;86.10
55590;BME280;41452;42.780;23.116;2023-07-31T07:44:40;94126.19;;;21.45;87.40
55590;BME280;41452;42.780;23.116;2023-07-31T07:47:05;94125.34;;;21.58;83.10
55590;BME280;41452;42.780;23.116;2023-07-31T07:49:33;94103.72;;;21.46;84.70
55590;BME280;41452;42.780;23.116;2023-07-31T07:51:59;94078.69;;;21.42;82.76
55590;BME280;41452;42.780;23.116;2023-07-31T07:54:25;94111.72;;;21.69;85.79
55590;BME280;41452;42.780;23.116;2023-07-31T07:56:50;94098.38;;;21.69;81.79
55590;BME280;41452;42.780;23.116;2023-07-31T07:59:16;94111.97;;;21.81;83.65
55590;BME280;41452;42.780;23.116;2023-07-31T08:01:41;94119.84;;;21.86;82.62
55590;BME280;41452;42.780;23.116;2023-07-31T08:04:06;94122.91;;;22.02;81.24
55590;BME280;41452;42.780;23.116;2023-07-31T08:06:32;94080.06;;;21.84;81.35
55590;BME280;41452;42.780;23.116;2023-07-31T08:08:57;94110.19;;;22.08;nan
55590;BME280;41452;42.780;23.116;2023-07-31T08:11:23;94107.88;;;22.15;78.72
55590;BME280;41452;42.780;23.116;2023-07-31T08:13:49;94120.63;;;22.18;79.40
55590;BME280;41452;42.780;23.116;2023-07-31T08:16:15;94113.09;;;22.20;79.15
55590;BME280;41452;42.780;23.116;2023-07-31T08:18:40;94124.66;;;22.38;77.84
55590;BME280;41452;42.780;23.116;2023-07-31T08:21:07;94119.81;;;22.49;78.25
55590;BME280;41452;42.780;23.116;2023-07-31T08:23:32;94115.72;;;22.43;79.77
55590;BME280;41452;42.780;23.116;2023-07-31T08:25:58;94127.75;;;22.71;77.58
55590;BME280;41452;42.780;23.116;2023-07-31T08:28:23;94106.19;;;22.68;78.26
55590;BME280;41452;42.780;23.116;2023-07-31T08:30:49;94128.88;;;22.88;79.50
55590;BME280;41452;42.780;23.116;2023-07-31T08:33:15;94123.84;;;22.86;75.88
55590;BME280;41452;42.780;23.116;2023-07-31T08:35:41;94121.50;;;22.85;75.91
55590;BME280;41452;42.780;23.116;2023-07-31T08:38:06;94121.00;;;22.91;77.95
55590;BME280;41452;42.780;23.116;2023-07-31T08:40:31;94119.59;;;22.94;77.84
55590;BME280;41452;42.780;23.116;2023-07-31T08:42:57;94105.00;;;23.09;77.36
55590;BME280;41452;42.780;23.116;2023-07-31T08:45:27;94113.97;;;23.13;77.69
55590;BME280;41452;42.780;23.116;2023-07-31T08:47:52;94112.56;;;23.15;76.75
55590;BME280;41452;42.780;23.116;2023-07-31T08:50:20;94113.19;;;23.39;76.47
55590;BME280;41452;42.780;23.116;2023-07-31T08:52:47;94113.47;;;23.54;76.49
55590;BME280;41452;42.780;23.116;2023-07-31T08:55:14;94090.00;;;23.34;74.43
55590;BME280;41452;42.780;23.116;2023-07-31T08:57:39;94123.06;;;23.64;76.67
55590;BME280;41452;42.780;23.116;2023-07-31T09:00:08;94083.06;;;23.50;70.65
55590;BME280;41452;42.780;23.116;2023-07-31T09:05:12;94119.44;;;23.95;73.87
55590;BME280;41452;42.780;23.116;2023-07-31T09:07:38;94123.66;;;24.05;70.04
55590;BME280;41452;42.780;23.116;2023-07-31T09:10:04;94123.00;;;24.08;69.71
55590;BME280;41452;42.780;23.116;2023-07-31T09:12:30;94111.50;;;24.07;71.21
55590;BME280;41452;42.780;23.116;2023-07-31T09:14:59;94105.03;;;24.00;71.05
55590;BME280;41452;42.780;23.116;2023-07-31T09:17:29;94104.53;;;24.15;70.54
55590;BME280;41452;42.780;23.116;2023-07-31T09:19:56;94106.03;;;24.25;69.78
55590;BME280;41452;42.780;23.116;2023-07-31T09:22:34;94090.34;;;24.15;68.71
55590;BME280;41452;42.780;23.116;2023-07-31T09:25:19;94107.75;;;24.38;68.73
55590;BME280;41452;42.780;23.116;2023-07-31T09:27:54;94103.88;;;24.48;67.38
55590;BME280;41452;42.780;23.116;2023-07-31T09:30:20;94107.06;;;24.50;68.90
55590;BME280;41452;42.780;23.116;2023-07-31T09:32:48;94114.44;;;24.62;66.22
55590;BME280;41452;42.780;23.116;2023-07-31T09:35:28;94103.47;;;24.76;67.77
55590;BME280;41452;42.780;23.116;2023-07-31T09:37:57;94114.84;;;24.73;66.91
55590;BME280;41452;42.780;23.116;2023-07-31T09:43:17;94107.59;;;24.94;64.48
55590;BME280;41452;42.780;23.116;2023-07-31T09:45:43;94102.22;;;24.94;64.58
55590;BME280;41452;42.780;23.116;2023-07-31T09:48:11;94105.97;;;24.81;63.43
55590;BME280;41452;42.780;23.116;2023-07-31T09:50:39;94118.41;;;24.85;64.67
55590;BME280;41452;42.780;23.116;2023-07-31T09:53:06;94109.94;;;24.96;62.91
55590;BME280;41452;42.780;23.116;2023-07-31T09:55:32;94110.16;;;24.91;62.58
55590;BME280;41452;42.780;23.116;2023-07-31T09:57:58;94096.09;;;24.64;63.70
55590;BME280;41452;42.780;23.116;2023-07-31T10:00:24;94104.00;;;24.90;64.51
55590;BME280;41452;42.780;23.116;2023-07-31T10:02:52;94100.88;;;25.09;65.49
55590;BME280;41452;42.780;23.116;2023-07-31T10:05:19;94104.25;;;25.18;62.10
55590;BME280;41452;42.780;23.116;2023-07-31T10:07:53;94070.00;;;24.94;61.96
55590;BME280;41452;42.780;23.116;2023-07-31T10:10:20;94099.97;;;25.05;62.16
55590;BME280;41452;42.780;23.116;2023-07-31T10:12:46;94095.38;;;25.05;62.80
55590;BME280;41452;42.780;23.116;2023-07-31T10:15:14;94096.53;;;25.17;62.31
55590;BME280;41452;42.780;23.116;2023-07-31T10:17:40;94096.53;;;25.17;62.34
55590;BME280;41452;42.780;23.116;2023-07-31T10:20:07;94067.72;;;24.84;58.67
55590;BME280;41452;42.780;23.116;2023-07-31T10:22:33;94096.41;;;25.13;62.13
55590;BME280;41452;42.780;23.116;2023-07-31T10:24:59;94068.03;;;25.03;60.92
55590;BME280;41452;42.780;23.116;2023-07-31T10:27:25;94076.97;;;25.37;61.82
55590;BME280;41452;42.780;23.116;2023-07-31T10:29:54;94087.06;;;25.53;61.96
55590;BME280;41452;42.780;23.116;2023-07-31T10:32:20;94067.16;;;25.54;60.38
55590;BME280;41452;42.780;23.116;2023-07-31T10:34:47;94078.47;;;25.59;57.30
55590;BME280;41452;42.780;23.116;2023-07-31T10:40:45;94090.69;;;25.57;61.55
55590;BME280;41452;42.780;23.116;2023-07-31T10:42:48;94048.94;;;25.38;59.97
55590;BME280;41452;42.780;23.116;2023-07-31T10:45:23;94079.13;;;25.56;60.65
55590;BME280;41452;42.780;23.116;2023-07-31T10:47:49;94074.84;;;25.76;57.20
55590;BME280;41452;42.780;23.116;2023-07-31T10:50:19;94067.00;;;25.84;56.77
55590;BME280;41452;42.780;23.116;2023-07-31T10:52:52;94070.19;;;25.98;57.67
55590;BME280;41452;42.780;23.116;2023-07-31T10:55:29;94066.75;;;26.10;57.59
55590;BME280;41452;42.780;23.116;2023-07-31T10:57:56;94071.09;;;26.14;57.82
55590;BME280;41452;42.780;23.116;2023-07-31T11:00:27;94074.78;;;26.22;58.18
55590;BME280;41452;42.780;23.116;2023-07-31T11:06:02;94076.22;;;25.95;57.10
55590;BME280;41452;42.780;23.116;2023-07-31T11:08:29;94065.41;;;25.83;59.42
55590;BME280;41452;42.780;23.116;2023-07-31T11:13:28;94072.84;;;25.86;57.56
55590;BME280;41452;42.780;23.116;2023-07-31T11:15:54;94047.25;;;25.79;57.80
55590;BME280;41452;42.780;23.116;2023-07-31T11:18:19;94063.91;;;25.94;58.30
55590;BME280;41452;42.780;23.116;2023-07-31T11:20:45;94062.53;;;25.88;57.76
55590;BME280;41452;42.780;23.116;2023-07-31T11:23:11;93969.09;;;25.27;56.83
55590;BME280;41452;42.780;23.116;2023-07-31T11:25:37;94059.47;;;25.77;56.28
55590;BME280;41452;42.780;23.116;2023-07-31T11:28:15;94062.22;;;25.56;57.83
55590;BME280;41452;42.780;23.116;2023-07-31T11:30:42;94086.91;;;25.70;61.67
55590;BME280;41452;42.780;23.116;2023-07-31T11:33:09;94061.75;;;25.87;60.14
55590;BME280;41452;42.780;23.116;2023-07-31T11:35:45;94063.66;;;25.87;60.57
55590;BME280;41452;42.780;23.116;2023-07-31T11:38:12;94044.34;;;25.85;62.14
55590;BME280;41452;42.780;23.116;2023-07-31T11:40:45;94059.91;;;26.12;61.54
55590;BME280;41452;42.780;23.116;2023-07-31T11:43:11;94051.50;;;26.14;61.31
55590;BME280;41452;42.780;23.116;2023-07-31T11:45:41;94038.25;;;26.09;61.52
55590;BME280;41452;42.780;23.116;2023-07-31T11:48:07;94056.44;;;26.24;58.97
55590;BME280;41452;42.780;23.116;2023-07-31T11:50:33;94051.38;;;26.35;59.52
55590;BME280;41452;42.780;23.116;2023-07-31T11:53:03;94055.75;;;26.27;55.76
55590;BME280;41452;42.780;23.116;2023-07-31T11:55:33;94040.28;;;26.24;54.49
55590;BME280;41452;42.780;23.116;2023-07-31T11:57:59;94017.50;;;26.22;54.40
55590;BME280;41452;42.780;23.116;2023-07-31T12:00:25;94026.25;;;26.18;56.14
55590;BME280;41452;42.780;23.116;2023-07-31T12:02:51;94034.53;;;26.38;53.79
55590;BME280;41452;42.780;23.116;2023-07-31T12:05:17;94008.31;;;26.35;58.30
55590;BME280;41452;42.780;23.116;2023-07-31T12:07:50;94027.81;;;26.56;55.40
55590;BME280;41452;42.780;23.116;2023-07-31T12:10:32;94021.75;;;26.47;53.99
55590;BME280;41452;42.780;23.116;2023-07-31T12:13:05;93996.50;;;26.40;56.12
55590;BME280;41452;42.780;23.116;2023-07-31T12:15:42;94026.91;;;26.65;55.73
55590;BME280;41452;42.780;23.116;2023-07-31T12:18:20;94018.81;;;26.65;55.02
55590;BME280;41452;42.780;23.116;2023-07-31T12:20:47;94015.69;;;26.63;53.81
55590;BME280;41452;42.780;23.116;2023-07-31T12:23:17;94020.50;;;26.57;52.79
55590;BME280;41452;42.780;23.116;2023-07-31T12:25:43;94020.84;;;26.55;53.89
55590;BME280;41452;42.780;23.116;2023-07-31T12:28:08;94006.16;;;26.53;55.34
55590;BME280;41452;42.780;23.116;2023-07-31T12:30:38;94013.47;;;26.52;55.48
55590;BME280;41452;42.780;23.116;2023-07-31T12:33:14;94006.50;;;26.51;55.57
55590;BME280;41452;42.780;23.116;2023-07-31T12:35:41;94004.81;;;26.34;53.47
55590;BME280;41452;42.780;23.116;2023-07-31T12:38:08;94011.47;;;26.25;50.90
55590;BME280;41452;42.780;23.116;2023-07-31T12:40:37;93996.78;;;26.10;53.00
55590;BME280;41452;42.780;23.116;2023-07-31T12:43:02;94013.03;;;26.13;53.28
55590;BME280;41452;42.780;23.116;2023-07-31T12:45:29;94014.16;;;26.25;55.38
55590;BME280;41452;42.780;23.116;2023-07-31T12:47:54;94006.72;;;26.34;55.40
55590;BME280;41452;42.780;23.116;2023-07-31T12:50:19;94008.09;;;26.28;50.94
55590;BME280;41452;42.780;23.116;2023-07-31T12:52:45;94010.22;;;26.22;51.99
55590;BME280;41452;42.780;23.116;2023-07-31T12:55:10;94005.63;;;26.35;51.77
55590;BME280;41452;42.780;23.116;2023-07-31T12:57:36;93997.75;;;26.42;51.42
55590;BME280;41452;42.780;23.116;2023-07-31T13:00:02;93991.78;;;26.49;51.79
55590;BME280;41452;42.780;23.116;2023-07-31T13:02:27;93970.31;;;26.24;50.21
55590;BME280;41452;42.780;23.116;2023-07-31T13:04:53;93989.03;;;26.33;51.10